Time;durP1;ratioP1;P1;durP2;ratioP2;P2;SDS_P1;SDS_P2;PMS_P1;PMS_P2;Temp;Humidity;BMP_temperature;BMP_pressure;BME280_temperature;BME280_humidity;BME280_pressure;Samples;Min_cycle;Max_cycle;Signal;HPM_P1;HPM_P2
2023/08/03 00:00:27;;;;;;;3.92;0.90;;;18.70;99.90;;;;;;2080781;28;20279;-71
2023/08/03 00:01:27;;;;;;;3.53;0.80;;;18.70;99.90;;;;;;2081183;28;20026;-71
2023/08/03 00:02:30;;;;;;;4.07;1.00;;;18.70;99.90;;;;;;2080012;28;20021;-72
2023/08/03 00:03:31;;;;;;;3.65;1.05;;;18.70;99.90;;;;;;2080776;28;20017;-71
2023/08/03 00:04:31;;;;;;;5.07;0.90;;;18.70;99.90;;;;;;2077839;28;20021;-71
2023/08/03 00:05:32;;;;;;;2.00;0.82;;;18.70;99.90;;;;;;2082162;28;20037;-71
2023/08/03 00:06:32;;;;;;;2.55;0.80;;;18.60;99.90;;;;;;2080926;28;20560;-71
2023/08/03 00:07:33;;;;;;;4.00;0.80;;;18.70;99.90;;;;;;2079448;28;20146;-71
2023/08/03 00:08:34;;;;;;;3.00;1.05;;;18.70;99.90;;;;;;2078882;28;20029;-71
2023/08/03 00:09:34;;;;;;;2.00;0.70;;;18.60;99.90;;;;;;2079828;28;20049;-71
2023/08/03 00:10:35;;;;;;;2.22;0.80;;;18.60;99.90;;;;;;2078997;28;20027;-71
2023/08/03 00:11:35;;;;;;;2.42;0.77;;;18.60;99.90;;;;;;2081569;28;20014;-71
2023/08/03 00:12:36;;;;;;;3.10;0.70;;;18.60;99.90;;;;;;2079905;28;20037;-72
2023/08/03 00:13:37;;;;;;;1.77;1.15;;;18.60;99.90;;;;;;2081405;28;20109;-72
2023/08/03 00:14:37;;;;;;;1.23;0.68;;;18.60;99.90;;;;;;2080994;28;20029;-72
2023/08/03 00:15:38;;;;;;;2.50;0.82;;;18.50;99.90;;;;;;2078530;28;20029;-71
2023/08/03 00:16:38;;;;;;;5.38;0.88;;;18.50;99.90;;;;;;2081906;28;20814;-71
2023/08/03 00:17:39;;;;;;;1.58;0.77;;;18.50;99.90;;;;;;2081288;28;20033;-72
2023/08/03 00:18:39;;;;;;;3.78;0.98;;;18.50;99.90;;;;;;2078359;28;20017;-71
2023/08/03 00:19:40;;;;;;;2.35;1.00;;;18.50;99.90;;;;;;2080689;28;20099;-71
2023/08/03 00:20:40;;;;;;;3.13;1.10;;;18.50;99.90;;;;;;2079704;28;20075;-71
2023/08/03 00:21:41;;;;;;;3.17;0.82;;;18.50;99.90;;;;;;2081377;28;20480;-72
2023/08/03 00:22:46;;;;;;;3.08;0.80;;;18.50;99.90;;;;;;2078187;28;20048;-71
2023/08/03 00:23:46;;;;;;;3.78;1.02;;;18.50;99.90;;;;;;2078355;28;20584;-72
2023/08/03 00:24:49;;;;;;;1.92;1.00;;;18.50;99.90;;;;;;2078726;28;20037;-71
2023/08/03 00:25:49;;;;;;;4.68;0.85;;;18.50;99.90;;;;;;2079214;28;20086;-71
2023/08/03 00:26:50;;;;;;;1.98;0.80;;;18.50;99.90;;;;;;2077399;28;20074;-72
2023/08/03 00:27:50;;;;;;;2.15;1.10;;;18.50;99.90;;;;;;2081615;28;20421;-72
2023/08/03 00:28:51;;;;;;;3.42;0.90;;;18.50;99.90;;;;;;2079184;28;20049;-72
2023/08/03 00:29:52;;;;;;;3.58;1.00;;;18.50;99.90;;;;;;2080480;28;20025;-72
2023/08/03 00:30:52;;;;;;;1.98;0.80;;;18.40;99.90;;;;;;2079500;28;20112;-72
2023/08/03 00:31:53;;;;;;;2.25;0.80;;;18.50;99.90;;;;;;2080298;28;20025;-71
2023/08/03 00:32:53;;;;;;;2.03;0.70;;;18.50;99.90;;;;;;2081633;28;20029;-71
2023/08/03 00:33:54;;;;;;;2.75;0.80;;;18.50;99.90;;;;;;2079855;28;20022;-71
2023/08/03 00:34:56;;;;;;;2.67;0.95;;;18.50;99.90;;;;;;2079857;28;20098;-72
2023/08/03 00:35:56;;;;;;;2.15;0.90;;;18.50;99.90;;;;;;2078843;28;20084;-72
2023/08/03 00:36:57;;;;;;;2.65;0.98;;;18.40;99.90;;;;;;2080443;28;20022;-71
2023/08/03 00:37:58;;;;;;;2.15;0.73;;;18.40;99.90;;;;;;2080264;28;20057;-71
2023/08/03 00:38:58;;;;;;;2.40;1.05;;;18.40;99.90;;;;;;2080739;28;20074;-71
2023/08/03 00:39:59;;;;;;;2.53;0.80;;;18.40;99.90;;;;;;2077916;28;20064;-71
2023/08/03 00:40:59;;;;;;;5.20;1.10;;;18.40;99.90;;;;;;2079962;28;20481;-71
2023/08/03 00:42:00;;;;;;;1.98;0.90;;;18.40;99.90;;;;;;2078434;28;20040;-71
2023/08/03 00:43:04;;;;;;;1.80;0.70;;;18.40;99.90;;;;;;2081338;28;20477;-71
2023/08/03 00:44:04;;;;;;;1.90;0.68;;;18.40;99.90;;;;;;2079599;28;20136;-71
2023/08/03 00:45:06;;;;;;;1.65;0.60;;;18.40;99.90;;;;;;2079620;28;20052;-71
2023/08/03 00:46:06;;;;;;;2.70;1.05;;;18.40;99.90;;;;;;2079169;28;20041;-71
2023/08/03 00:47:07;;;;;;;2.65;1.00;;;18.40;99.90;;;;;;2080481;28;20078;-71
2023/08/03 00:48:08;;;;;;;2.83;0.75;;;18.40;99.90;;;;;;2080730;28;20458;-71
2023/08/03 00:49:09;;;;;;;2.75;0.90;;;18.40;99.90;;;;;;2080462;28;20100;-71
2023/08/03 00:50:09;;;;;;;3.55;1.02;;;18.30;99.90;;;;;;2080718;28;20080;-72
2023/08/03 00:51:11;;;;;;;0.98;0.80;;;18.40;99.90;;;;;;2079708;28;20056;-72
2023/08/03 00:52:12;;;;;;;3.20;1.10;;;18.30;99.90;;;;;;2079189;28;20063;-72
2023/08/03 00:53:12;;;;;;;2.35;1.05;;;18.30;99.90;;;;;;2079689;28;20045;-72
2023/08/03 00:54:13;;;;;;;1.48;0.90;;;18.30;99.90;;;;;;2082659;28;20026;-71
2023/08/03 00:55:14;;;;;;;5.03;0.85;;;18.30;99.90;;;;;;2082332;28;20118;-72
2023/08/03 00:56:14;;;;;;;2.42;0.90;;;18.30;99.90;;;;;;2079327;28;20083;-72
2023/08/03 00:57:15;;;;;;;6.53;1.08;;;18.30;99.90;;;;;;2081362;28;20492;-72
2023/08/03 00:58:15;;;;;;;2.22;1.02;;;18.30;99.90;;;;;;2080440;28;20060;-72
2023/08/03 00:59:17;;;;;;;1.55;0.80;;;18.30;99.90;;;;;;2079218;28;20467;-71
2023/08/03 01:00:17;;;;;;;2.42;0.80;;;18.30;99.90;;;;;;2081637;28;20025;-72
2023/08/03 01:01:20;;;;;;;2.30;1.00;;;18.20;99.90;;;;;;2084766;28;20027;-72
2023/08/03 01:02:21;;;;;;;3.78;1.33;;;18.20;99.90;;;;;;2081116;28;20104;-71
2023/08/03 01:03:22;;;;;;;2.80;1.13;;;18.20;99.90;;;;;;2082823;28;20034;-72
2023/08/03 01:04:22;;;;;;;1.30;1.20;;;18.20;99.90;;;;;;2081814;28;20039;-71
2023/08/03 01:05:25;;;;;;;1.40;1.00;;;18.20;99.90;;;;;;2080791;28;20029;-71
2023/08/03 01:06:26;;;;;;;1.58;0.73;;;18.20;99.90;;;;;;2081864;28;20017;-72
2023/08/03 01:07:26;;;;;;;2.72;0.93;;;18.20;99.90;;;;;;2080310;28;20029;-71
2023/08/03 01:08:28;;;;;;;4.32;1.30;;;18.20;99.90;;;;;;2079706;28;20398;-71
2023/08/03 01:09:28;;;;;;;1.90;0.80;;;18.20;99.90;;;;;;2078989;28;20032;-71
2023/08/03 01:10:29;;;;;;;2.10;1.13;;;18.20;99.90;;;;;;2080781;28;20393;-72
2023/08/03 01:11:31;;;;;;;1.75;0.93;;;18.20;99.90;;;;;;2082095;28;20025;-71
2023/08/03 01:12:32;;;;;;;3.95;1.35;;;18.20;99.90;;;;;;2082336;28;20071;-71
2023/08/03 01:13:32;;;;;;;3.88;1.48;;;18.20;99.90;;;;;;2081115;28;20026;-71
2023/08/03 01:14:33;;;;;;;1.58;1.15;;;18.20;99.90;;;;;;2082198;28;20036;-72
2023/08/03 01:15:33;;;;;;;2.85;1.70;;;18.20;99.90;;;;;;2081037;28;20033;-71
2023/08/03 01:16:34;;;;;;;3.25;1.00;;;18.20;99.90;;;;;;2081577;28;20053;-71
2023/08/03 01:17:35;;;;;;;4.25;1.35;;;18.20;99.90;;;;;;2083557;28;20562;-71
2023/08/03 01:18:42;;;;;;;4.30;1.25;;;18.10;99.90;;;;;;2081406;28;20029;-72
2023/08/03 01:19:42;;;;;;;2.38;1.00;;;18.20;99.90;;;;;;2079310;28;20052;-71
2023/08/03 01:20:44;;;;;;;3.65;1.38;;;18.10;99.90;;;;;;2081070;28;20029;-71
2023/08/03 01:21:46;;;;;;;1.83;0.90;;;18.10;99.90;;;;;;2079964;28;20070;-72
2023/08/03 01:22:47;;;;;;;3.17;1.10;;;18.20;99.90;;;;;;2081227;28;20039;-71
2023/08/03 01:23:48;;;;;;;3.35;1.27;;;18.20;99.90;;;;;;2080702;28;20045;-71
2023/08/03 01:24:48;;;;;;;1.40;0.80;;;18.20;99.90;;;;;;2079512;28;20374;-71
2023/08/03 01:25:49;;;;;;;2.10;0.90;;;18.10;99.90;;;;;;2080620;28;20043;-71
2023/08/03 01:26:49;;;;;;;3.42;0.95;;;18.10;99.90;;;;;;2081868;28;20059;-72
2023/08/03 01:27:50;;;;;;;1.60;0.60;;;18.20;99.90;;;;;;2079435;28;20547;-71
2023/08/03 01:28:51;;;;;;;1.63;0.65;;;18.10;99.90;;;;;;2082298;28;20052;-72
2023/08/03 01:29:51;;;;;;;1.85;0.60;;;18.10;99.90;;;;;;2083121;28;20021;-72
2023/08/03 01:30:52;;;;;;;4.30;0.80;;;18.20;99.90;;;;;;2083203;28;20033;-72
2023/08/03 01:31:56;;;;;;;1.55;0.80;;;18.20;99.90;;;;;;2082578;28;20500;-72
2023/08/03 01:32:57;;;;;;;1.40;0.60;;;18.20;99.90;;;;;;2078884;28;20938;-72
2023/08/03 01:33:58;;;;;;;1.73;0.63;;;18.10;99.90;;;;;;2081880;28;20036;-72
2023/08/03 01:34:59;;;;;;;1.00;0.50;;;18.10;99.90;;;;;;2079952;28;20032;-72
2023/08/03 01:35:59;;;;;;;1.40;0.60;;;18.10;99.90;;;;;;2082858;28;20147;-71
2023/08/03 01:37:00;;;;;;;2.97;0.82;;;18.10;99.90;;;;;;2082226;28;20045;-71
2023/08/03 01:38:00;;;;;;;1.38;0.70;;;18.10;99.90;;;;;;2081592;28;20027;-71
2023/08/03 01:39:09;;;;;;;2.55;0.68;;;18.10;99.90;;;;;;2082462;28;20155;-72
2023/08/03 01:40:12;;;;;;;2.38;0.70;;;18.10;99.90;;;;;;2080831;28;20035;-72
2023/08/03 01:41:13;;;;;;;2.70;0.70;;;18.10;99.90;;;;;;2079868;28;20037;-71
2023/08/03 01:42:14;;;;;;;1.48;0.60;;;18.10;99.90;;;;;;2080955;28;20044;-71
2023/08/03 01:43:14;;;;;;;0.88;0.50;;;18.10;99.90;;;;;;2083241;28;20025;-72
2023/08/03 01:44:30;;;;;;;1.42;0.85;;;18.10;99.90;;;;;;2082364;28;20029;-72
2023/08/03 01:45:30;;;;;;;2.50;0.98;;;18.10;99.90;;;;;;2080947;28;20037;-72
2023/08/03 01:46:31;;;;;;;2.28;0.65;;;18.10;99.90;;;;;;2081729;28;20029;-71
2023/08/03 01:47:31;;;;;;;2.45;0.82;;;18.10;99.90;;;;;;2077902;28;20049;-72
2023/08/03 01:48:32;;;;;;;1.23;0.50;;;18.10;99.90;;;;;;2082022;28;20021;-72
2023/08/03 01:49:33;;;;;;;3.88;0.80;;;18.10;99.90;;;;;;2081321;28;20027;-72
2023/08/03 01:50:34;;;;;;;1.23;0.70;;;18.10;99.90;;;;;;2080432;28;20036;-72
2023/08/03 01:51:34;;;;;;;1.42;0.68;;;18.10;99.90;;;;;;2081730;28;20108;-71
2023/08/03 01:52:35;;;;;;;1.60;0.80;;;18.10;99.90;;;;;;2080273;28;20413;-71
2023/08/03 01:53:35;;;;;;;1.98;0.98;;;18.10;99.90;;;;;;2080722;28;20074;-71
2023/08/03 01:54:36;;;;;;;3.38;1.13;;;18.10;99.90;;;;;;2081172;28;20457;-71
2023/08/03 01:55:36;;;;;;;5.03;1.00;;;18.10;99.90;;;;;;2081934;28;20026;-71
2023/08/03 01:56:37;;;;;;;3.30;0.95;;;18.10;99.90;;;;;;2081358;28;20095;-72
2023/08/03 01:57:38;;;;;;;2.95;0.90;;;18.10;99.90;;;;;;2081249;28;20037;-71
2023/08/03 01:58:38;;;;;;;3.08;1.00;;;18.00;99.90;;;;;;2081167;28;20025;-72
2023/08/03 01:59:39;;;;;;;2.00;1.13;;;18.00;99.90;;;;;;2083609;28;20048;-72
2023/08/03 02:00:40;;;;;;;5.35;1.05;;;18.10;99.90;;;;;;2079265;28;20025;-72
2023/08/03 02:01:40;;;;;;;3.38;1.30;;;18.00;99.90;;;;;;2080111;28;20063;-72
2023/08/03 02:02:41;;;;;;;1.65;0.80;;;18.00;99.90;;;;;;2081673;28;20668;-72
2023/08/03 02:03:41;;;;;;;1.50;0.80;;;18.00;99.90;;;;;;2078757;28;20053;-71
2023/08/03 02:04:42;;;;;;;3.13;1.15;;;18.10;99.90;;;;;;2080761;28;20566;-71
2023/08/03 02:05:42;;;;;;;3.00;1.10;;;18.10;99.90;;;;;;2081926;28;20049;-72
2023/08/03 02:06:48;;;;;;;2.72;1.10;;;18.00;99.90;;;;;;2080531;28;20128;-72
2023/08/03 02:07:56;;;;;;;1.33;0.65;;;18.00;99.90;;;;;;2081157;28;20040;-72
2023/08/03 02:08:56;;;;;;;2.97;1.00;;;18.10;99.90;;;;;;2081194;28;20088;-72
2023/08/03 02:09:57;;;;;;;2.92;0.95;;;18.00;99.90;;;;;;2078675;28;20035;-72
2023/08/03 02:10:57;;;;;;;5.18;1.00;;;18.10;99.90;;;;;;2081098;28;20032;-72
2023/08/03 02:11:58;;;;;;;5.75;1.10;;;18.10;99.90;;;;;;2080402;28;20064;-71
2023/08/03 02:12:58;;;;;;;3.47;1.02;;;18.00;99.90;;;;;;2080824;28;20567;-71
2023/08/03 02:13:59;;;;;;;3.85;1.08;;;18.00;99.90;;;;;;2081041;28;20068;-71
2023/08/03 02:14:59;;;;;;;3.55;1.38;;;18.00;99.90;;;;;;2078380;28;20018;-71
2023/08/03 02:16:08;;;;;;;2.75;1.10;;;18.00;99.90;;;;;;2081592;28;20067;-72
2023/08/03 02:17:09;;;;;;;4.13;1.30;;;18.00;99.90;;;;;;2080855;28;20021;-71
2023/08/03 02:18:10;;;;;;;3.13;1.05;;;18.00;99.90;;;;;;2081633;28;20014;-71
2023/08/03 02:19:10;;;;;;;2.72;1.00;;;18.00;99.90;;;;;;2083592;28;20029;-71
2023/08/03 02:20:12;;;;;;;3.42;0.90;;;18.00;99.90;;;;;;2079336;28;20029;-71
2023/08/03 02:21:12;;;;;;;4.13;1.02;;;18.10;99.90;;;;;;2080685;28;20641;-71
2023/08/03 02:22:13;;;;;;;2.67;1.10;;;18.10;99.90;;;;;;2083581;28;20111;-71
2023/08/03 02:23:13;;;;;;;3.88;1.20;;;18.10;99.90;;;;;;2081897;28;20108;-71
2023/08/03 02:24:14;;;;;;;4.95;0.98;;;18.10;99.90;;;;;;2081481;28;20025;-71
2023/08/03 02:25:15;;;;;;;6.20;1.52;;;18.10;99.90;;;;;;2082352;28;20710;-71
2023/08/03 02:26:16;;;;;;;5.32;1.50;;;18.10;99.90;;;;;;2083528;28;20020;-71
2023/08/03 02:27:16;;;;;;;7.22;1.75;;;18.10;99.90;;;;;;2081471;28;20022;-72
2023/08/03 02:28:17;;;;;;;1.77;1.13;;;18.10;99.90;;;;;;2081750;28;20021;-71
2023/08/03 02:29:17;;;;;;;3.63;1.15;;;18.10;99.90;;;;;;2080293;28;20033;-71
2023/08/03 02:30:18;;;;;;;3.65;1.15;;;18.10;99.90;;;;;;2082195;28;20533;-72
2023/08/03 02:31:18;;;;;;;4.75;1.30;;;18.10;99.90;;;;;;2080008;28;20017;-71
2023/08/03 02:32:24;;;;;;;5.72;1.42;;;18.10;99.90;;;;;;2084886;28;20488;-71
2023/08/03 02:33:25;;;;;;;5.65;1.20;;;18.10;99.90;;;;;;2085131;28;20028;-71
2023/08/03 02:34:25;;;;;;;2.78;1.05;;;18.10;99.90;;;;;;2081723;28;20026;-71
2023/08/03 02:35:26;;;;;;;6.60;1.42;;;18.10;99.90;;;;;;2081190;28;20464;-71
2023/08/03 02:36:26;;;;;;;2.47;1.30;;;18.10;99.90;;;;;;2081398;28;20021;-71
2023/08/03 02:37:27;;;;;;;3.75;1.25;;;18.10;99.90;;;;;;2081388;28;20053;-72
2023/08/03 02:38:28;;;;;;;4.85;1.20;;;18.10;99.90;;;;;;2079517;28;20018;-72
2023/08/03 02:39:28;;;;;;;3.30;1.15;;;18.20;99.90;;;;;;2080250;28;20440;-71
2023/08/03 02:40:29;;;;;;;4.25;1.55;;;18.20;99.90;;;;;;2078361;28;20021;-71
2023/08/03 02:41:31;;;;;;;4.05;1.25;;;18.10;99.90;;;;;;2084535;28;20026;-71
2023/08/03 02:42:31;;;;;;;2.40;1.23;;;18.20;99.90;;;;;;2082338;28;20033;-71
2023/08/03 02:43:32;;;;;;;4.07;1.20;;;18.20;99.90;;;;;;2078672;28;20080;-71
2023/08/03 02:44:32;;;;;;;3.60;1.23;;;18.20;99.90;;;;;;2080248;28;20056;-71
2023/08/03 02:45:33;;;;;;;4.25;1.67;;;18.20;99.90;;;;;;2081333;28;20420;-71
2023/08/03 02:46:33;;;;;;;4.63;1.10;;;18.20;99.90;;;;;;2084470;28;20037;-71
2023/08/03 02:47:34;;;;;;;2.80;0.90;;;18.20;99.90;;;;;;2080306;28;20084;-71
2023/08/03 02:48:34;;;;;;;4.78;1.20;;;18.20;99.90;;;;;;2082286;28;20075;-71
2023/08/03 02:49:35;;;;;;;4.03;1.17;;;18.20;99.90;;;;;;2080297;28;20052;-71
2023/08/03 02:50:36;;;;;;;6.55;1.73;;;18.20;99.90;;;;;;2077166;28;20498;-71
2023/08/03 02:51:36;;;;;;;6.05;1.40;;;18.20;99.90;;;;;;2079781;28;20021;-71
2023/08/03 02:52:37;;;;;;;3.45;1.38;;;18.20;99.90;;;;;;2082131;28;20025;-71
2023/08/03 02:53:37;;;;;;;3.90;1.23;;;18.20;99.90;;;;;;2079144;28;20143;-71
2023/08/03 02:54:38;;;;;;;4.35;1.30;;;18.20;99.90;;;;;;2081330;28;20041;-72
2023/08/03 02:55:39;;;;;;;5.00;1.67;;;18.20;99.90;;;;;;2077642;28;20053;-71
2023/08/03 02:56:39;;;;;;;4.03;1.40;;;18.20;99.90;;;;;;2080623;28;20033;-71
2023/08/03 02:57:40;;;;;;;5.90;1.58;;;18.20;99.90;;;;;;2080729;28;20116;-71
2023/08/03 02:58:40;;;;;;;3.85;1.45;;;18.20;99.90;;;;;;2078919;28;20029;-71
2023/08/03 02:59:41;;;;;;;5.07;1.70;;;18.20;99.90;;;;;;2079417;28;20181;-71
2023/08/03 03:00:42;;;;;;;4.93;1.33;;;18.20;99.90;;;;;;2077556;28;20553;-71
2023/08/03 03:01:42;;;;;;;4.15;1.27;;;18.20;99.90;;;;;;2079383;28;20047;-71
2023/08/03 03:02:43;;;;;;;6.10;1.60;;;18.20;99.90;;;;;;2077416;28;20080;-72
2023/08/03 03:03:43;;;;;;;5.00;1.20;;;18.20;99.90;;;;;;2079292;28;20040;-71
2023/08/03 03:04:44;;;;;;;5.38;1.55;;;18.20;99.90;;;;;;2081792;28;20460;-72
2023/08/03 03:05:44;;;;;;;6.55;1.50;;;18.20;99.90;;;;;;2078463;28;20025;-71
2023/08/03 03:06:45;;;;;;;4.07;1.40;;;18.20;99.90;;;;;;2079846;28;20060;-71
2023/08/03 03:07:45;;;;;;;4.00;1.38;;;18.20;99.90;;;;;;2082232;28;20033;-71
2023/08/03 03:08:46;;;;;;;5.38;1.27;;;18.20;99.90;;;;;;2079234;28;20053;-71
2023/08/03 03:09:46;;;;;;;5.05;2.17;;;18.30;99.90;;;;;;2080804;28;20054;-71
2023/08/03 03:10:47;;;;;;;3.03;1.63;;;18.20;99.90;;;;;;2079425;28;20022;-71
2023/08/03 03:11:48;;;;;;;5.43;2.03;;;18.20;99.90;;;;;;2079609;28;20497;-72
2023/08/03 03:12:49;;;;;;;5.13;1.98;;;18.20;99.90;;;;;;2079327;28;20050;-71
2023/08/03 03:13:49;;;;;;;4.55;1.58;;;18.20;99.90;;;;;;2080300;28;20029;-71
2023/08/03 03:14:50;;;;;;;2.90;1.40;;;18.20;99.90;;;;;;2078406;28;20034;-71
2023/08/03 03:15:50;;;;;;;5.30;1.45;;;18.20;99.90;;;;;;2078815;28;20030;-71
2023/08/03 03:16:51;;;;;;;5.22;1.73;;;18.20;99.90;;;;;;2079451;28;20029;-71
2023/08/03 03:17:51;;;;;;;7.32;1.63;;;18.20;99.90;;;;;;2080005;28;20080;-71
2023/08/03 03:18:52;;;;;;;3.03;1.58;;;18.20;99.90;;;;;;2080520;28;20026;-71
2023/08/03 03:19:52;;;;;;;4.57;1.38;;;18.20;99.90;;;;;;2076717;28;20041;-71
2023/08/03 03:20:53;;;;;;;5.35;1.45;;;18.20;99.90;;;;;;2079980;28;20138;-72
2023/08/03 03:21:54;;;;;;;4.25;1.50;;;18.20;99.90;;;;;;2079696;28;20172;-72
2023/08/03 03:22:54;;;;;;;5.30;1.70;;;18.20;99.90;;;;;;2081068;28;20064;-71
2023/08/03 03:23:55;;;;;;;4.57;1.70;;;18.20;99.90;;;;;;2082735;28;20033;-71
2023/08/03 03:24:55;;;;;;;6.18;1.67;;;18.20;99.90;;;;;;2077653;28;20101;-71
2023/08/03 03:25:56;;;;;;;4.40;1.35;;;18.20;99.90;;;;;;2079893;28;20030;-71
2023/08/03 03:26:56;;;;;;;6.50;1.75;;;18.20;99.90;;;;;;2082597;28;20100;-72
2023/08/03 03:28:03;;;;;;;4.72;1.35;;;18.20;99.90;;;;;;2077392;28;20514;-71
2023/08/03 03:29:04;;;;;;;7.82;1.88;;;18.20;99.90;;;;;;2076575;28;20104;-71
2023/08/03 03:30:05;;;;;;;4.30;1.58;;;18.20;99.90;;;;;;2079716;28;20033;-71
2023/08/03 03:31:06;;;;;;;4.72;1.50;;;18.20;99.90;;;;;;2080193;28;20017;-71
2023/08/03 03:32:07;;;;;;;7.70;1.70;;;18.20;99.90;;;;;;2083256;28;20045;-71
2023/08/03 03:33:07;;;;;;;3.72;1.60;;;18.20;99.90;;;;;;2081005;28;20401;-71
2023/08/03 03:34:08;;;;;;;5.53;1.70;;;18.20;99.90;;;;;;2080880;28;20057;-71
2023/08/03 03:35:08;;;;;;;3.60;1.52;;;18.20;99.90;;;;;;2080918;28;20377;-72
2023/08/03 03:36:09;;;;;;;3.90;1.38;;;18.20;99.90;;;;;;2081667;28;20036;-71
2023/08/03 03:37:09;;;;;;;7.90;1.70;;;18.20;99.90;;;;;;2081423;28;20026;-71
2023/08/03 03:38:10;;;;;;;3.80;1.52;;;18.20;99.90;;;;;;2080922;28;20032;-71
2023/08/03 03:39:10;;;;;;;6.50;2.30;;;18.20;99.90;;;;;;2080543;28;20036;-71
2023/08/03 03:40:11;;;;;;;4.20;1.20;;;18.20;99.90;;;;;;2080676;28;20020;-71
2023/08/03 03:41:11;;;;;;;6.10;1.95;;;18.20;99.90;;;;;;2078455;28;20036;-71
2023/08/03 03:42:12;;;;;;;5.43;1.35;;;18.20;99.90;;;;;;2075892;28;20057;-71
2023/08/03 03:43:12;;;;;;;4.40;1.67;;;18.20;99.90;;;;;;2078321;28;20021;-71
2023/08/03 03:44:13;;;;;;;4.50;1.48;;;18.20;99.90;;;;;;2077105;28;20628;-72
2023/08/03 03:45:13;;;;;;;4.30;1.27;;;18.20;99.90;;;;;;2078419;28;20052;-71
2023/08/03 03:46:14;;;;;;;3.22;1.10;;;18.20;99.90;;;;;;2081440;28;20025;-71
2023/08/03 03:47:15;;;;;;;6.15;1.17;;;18.20;99.90;;;;;;2080151;28;20552;-71
2023/08/03 03:48:15;;;;;;;5.65;1.13;;;18.20;99.90;;;;;;2081012;28;20025;-71
2023/08/03 03:49:16;;;;;;;4.00;1.38;;;18.20;99.90;;;;;;2080874;28;20024;-71
2023/08/03 03:50:16;;;;;;;10.82;1.45;;;18.20;99.90;;;;;;2078349;28;20048;-71
2023/08/03 03:51:19;;;;;;;4.38;1.55;;;18.20;99.90;;;;;;2083276;28;20025;-71
2023/08/03 03:52:20;;;;;;;4.35;1.50;;;18.20;99.90;;;;;;2078305;28;20163;-71
2023/08/03 03:53:20;;;;;;;7.30;1.42;;;18.20;99.90;;;;;;2080056;28;20083;-71
2023/08/03 03:54:21;;;;;;;4.47;1.40;;;18.20;99.90;;;;;;2082473;28;20075;-71
2023/08/03 03:55:22;;;;;;;3.15;1.10;;;18.20;99.90;;;;;;2079056;28;20404;-71
2023/08/03 03:56:22;;;;;;;2.78;1.10;;;18.20;99.90;;;;;;2080900;28;20030;-71
2023/08/03 03:57:23;;;;;;;2.63;1.35;;;18.20;99.90;;;;;;2079967;28;20028;-71
2023/08/03 03:58:23;;;;;;;3.00;1.10;;;18.20;99.90;;;;;;2081899;28;20643;-71
2023/08/03 03:59:24;;;;;;;4.25;1.58;;;18.20;99.90;;;;;;2080205;28;20437;-72
2023/08/03 04:00:24;;;;;;;2.88;1.30;;;18.20;99.90;;;;;;2078382;28;20032;-71
2023/08/03 04:01:25;;;;;;;4.78;1.60;;;18.30;99.90;;;;;;2079157;28;20029;-71
2023/08/03 04:02:25;;;;;;;3.50;1.58;;;18.30;99.90;;;;;;2079533;28;20397;-71
2023/08/03 04:03:26;;;;;;;3.10;1.10;;;18.30;99.90;;;;;;2082252;28;20156;-71
2023/08/03 04:04:27;;;;;;;3.85;1.10;;;18.30;99.90;;;;;;2077912;28;20029;-71
2023/08/03 04:05:27;;;;;;;4.57;1.42;;;18.20;99.90;;;;;;2079026;28;20022;-71
2023/08/03 04:06:28;;;;;;;2.67;0.90;;;18.20;99.90;;;;;;2078378;28;20474;-71
2023/08/03 04:07:28;;;;;;;3.30;0.98;;;18.20;99.90;;;;;;2080434;28;20072;-71
2023/08/03 04:08:29;;;;;;;3.50;1.33;;;18.20;99.90;;;;;;2079696;28;20025;-71
2023/08/03 04:09:29;;;;;;;6.10;1.45;;;18.20;99.90;;;;;;2080307;28;20164;-71
2023/08/03 04:10:30;;;;;;;4.47;1.00;;;18.20;99.90;;;;;;2080484;28;20544;-71
2023/08/03 04:11:31;;;;;;;3.97;1.00;;;18.20;99.90;;;;;;2078577;28;20335;-71
2023/08/03 04:12:32;;;;;;;4.85;1.30;;;18.30;99.90;;;;;;2081054;28;20135;-71
2023/08/03 04:13:34;;;;;;;5.03;1.00;;;18.30;99.90;;;;;;2081261;28;20141;-71
2023/08/03 04:14:34;;;;;;;3.13;1.00;;;18.30;99.90;;;;;;2079408;28;20113;-71
2023/08/03 04:15:35;;;;;;;3.72;1.20;;;18.30;99.90;;;;;;2081132;28;20036;-71
2023/08/03 04:16:35;;;;;;;8.27;1.08;;;18.20;99.90;;;;;;2078154;28;20021;-71
2023/08/03 04:17:38;;;;;;;3.50;1.30;;;18.20;99.90;;;;;;2079407;28;20025;-71
2023/08/03 04:18:39;;;;;;;1.92;0.93;;;18.30;99.90;;;;;;2081021;28;20018;-72
2023/08/03 04:19:39;;;;;;;2.78;1.17;;;18.30;99.90;;;;;;2079708;28;20496;-72
2023/08/03 04:20:40;;;;;;;5.00;1.30;;;18.20;99.90;;;;;;2080854;28;20374;-71
2023/08/03 04:21:40;;;;;;;2.97;1.10;;;18.30;99.90;;;;;;2082908;28;20043;-71
2023/08/03 04:22:41;;;;;;;4.15;1.45;;;18.30;99.90;;;;;;2081836;28;20067;-72
2023/08/03 04:23:42;;;;;;;1.83;1.00;;;18.30;99.90;;;;;;2081282;28;20032;-71
2023/08/03 04:24:42;;;;;;;3.88;0.98;;;18.30;99.90;;;;;;2078887;28;20036;-71
2023/08/03 04:25:43;;;;;;;3.30;1.25;;;18.30;99.90;;;;;;2076798;28;20030;-71
2023/08/03 04:26:43;;;;;;;4.88;1.55;;;18.30;99.90;;;;;;2080664;28;20017;-71
2023/08/03 04:27:44;;;;;;;4.40;1.30;;;18.30;99.90;;;;;;2079146;28;20486;-71
2023/08/03 04:28:44;;;;;;;1.77;1.00;;;18.30;99.90;;;;;;2081332;28;20389;-71
2023/08/03 04:29:45;;;;;;;1.83;1.05;;;18.30;99.90;;;;;;2080929;28;20017;-72
2023/08/03 04:30:45;;;;;;;4.35;1.30;;;18.30;99.90;;;;;;2077394;28;20027;-71
2023/08/03 04:31:46;;;;;;;2.70;1.20;;;18.30;99.90;;;;;;2082625;28;20023;-71
2023/08/03 04:32:46;;;;;;;3.17;1.00;;;18.30;99.90;;;;;;2077729;28;20033;-72
2023/08/03 04:33:47;;;;;;;3.88;1.55;;;18.30;99.90;;;;;;2081583;28;20068;-71
2023/08/03 04:34:47;;;;;;;4.35;1.48;;;18.30;99.90;;;;;;2079864;28;20021;-71
2023/08/03 04:35:48;;;;;;;2.22;0.80;;;18.30;99.90;;;;;;2079511;28;20029;-71
2023/08/03 04:36:48;;;;;;;1.50;0.77;;;18.30;99.90;;;;;;2078977;28;20035;-71
2023/08/03 04:37:49;;;;;;;2.55;1.00;;;18.30;99.90;;;;;;2080815;28;20038;-71
2023/08/03 04:38:49;;;;;;;3.25;0.90;;;18.30;99.90;;;;;;2079452;28;20025;-71
2023/08/03 04:39:50;;;;;;;6.63;1.17;;;18.30;99.90;;;;;;2080623;28;20074;-71
2023/08/03 04:40:51;;;;;;;3.22;1.40;;;18.30;99.90;;;;;;2078956;28;20033;-71
2023/08/03 04:41:51;;;;;;;3.90;1.20;;;18.30;99.90;;;;;;2078571;28;20053;-71
2023/08/03 04:42:52;;;;;;;3.15;0.90;;;18.30;99.90;;;;;;2079843;28;20022;-71
2023/08/03 04:43:52;;;;;;;5.65;0.95;;;18.30;99.90;;;;;;2079546;28;20043;-71
2023/08/03 04:44:53;;;;;;;4.10;0.90;;;18.40;99.90;;;;;;2078115;28;20397;-71
2023/08/03 04:45:54;;;;;;;1.23;0.77;;;18.30;99.90;;;;;;2079108;28;20044;-71
2023/08/03 04:46:54;;;;;;;3.28;1.10;;;18.40;99.90;;;;;;2080196;28;20029;-71
2023/08/03 04:47:55;;;;;;;3.13;1.10;;;18.40;99.90;;;;;;2081441;28;20030;-71
2023/08/03 04:48:55;;;;;;;3.80;1.25;;;18.40;99.90;;;;;;2078474;28;20034;-71
2023/08/03 04:49:56;;;;;;;2.95;1.00;;;18.40;99.90;;;;;;2077840;28;20477;-71
2023/08/03 04:50:56;;;;;;;4.03;1.02;;;18.40;99.90;;;;;;2080386;28;20083;-72
2023/08/03 04:51:57;;;;;;;2.83;1.02;;;18.40;99.90;;;;;;2078419;28;20021;-71
2023/08/03 04:53:00;;;;;;;2.40;0.77;;;18.40;99.90;;;;;;2081340;28;20482;-71
2023/08/03 04:54:00;;;;;;;2.85;1.00;;;18.40;99.90;;;;;;2080072;28;20018;-72
2023/08/03 04:55:01;;;;;;;1.90;1.02;;;18.40;99.90;;;;;;2078659;28;20029;-71
2023/08/03 04:56:01;;;;;;;3.58;1.08;;;18.40;99.90;;;;;;2080655;28;20025;-71
2023/08/03 04:57:02;;;;;;;3.05;0.95;;;18.40;99.90;;;;;;2078239;28;20040;-71
2023/08/03 04:58:03;;;;;;;2.35;0.80;;;18.40;99.90;;;;;;2081306;28;20541;-71
2023/08/03 04:59:03;;;;;;;2.13;1.00;;;18.40;99.90;;;;;;2081272;28;20083;-71
2023/08/03 05:00:04;;;;;;;3.28;0.90;;;18.40;99.90;;;;;;2079906;28;20030;-71
2023/08/03 05:01:05;;;;;;;5.53;1.13;;;18.40;99.90;;;;;;2080613;28;20453;-71
2023/08/03 05:02:06;;;;;;;3.75;1.30;;;18.40;99.90;;;;;;2078227;28;20382;-71
2023/08/03 05:03:06;;;;;;;1.65;0.70;;;18.40;99.90;;;;;;2079097;28;20033;-71
2023/08/03 05:04:13;;;;;;;2.10;0.80;;;18.40;99.90;;;;;;2080790;28;20048;-71
2023/08/03 05:05:13;;;;;;;2.15;0.85;;;18.50;99.90;;;;;;2080767;28;20084;-71
2023/08/03 05:06:14;;;;;;;4.13;0.82;;;18.40;99.90;;;;;;2079805;28;20796;-71
2023/08/03 05:07:14;;;;;;;4.80;0.88;;;18.50;99.90;;;;;;2080793;28;20477;-71
2023/08/03 05:08:15;;;;;;;4.18;1.17;;;18.40;99.90;;;;;;2079786;28;20525;-71
2023/08/03 05:09:15;;;;;;;2.03;0.85;;;18.40;99.90;;;;;;2080297;28;20057;-71
2023/08/03 05:10:16;;;;;;;3.22;1.10;;;18.40;99.90;;;;;;2076736;28;20025;-71
2023/08/03 05:11:16;;;;;;;2.35;0.80;;;18.40;99.90;;;;;;2078691;28;20071;-72
2023/08/03 05:12:17;;;;;;;2.33;1.00;;;18.40;99.90;;;;;;2080999;28;20032;-71
2023/08/03 05:13:17;;;;;;;2.90;1.08;;;18.40;99.90;;;;;;2078967;28;20021;-71
2023/08/03 05:14:18;;;;;;;2.58;0.73;;;18.40;99.90;;;;;;2080431;28;20108;-71
2023/08/03 05:15:18;;;;;;;3.47;1.15;;;18.40;99.90;;;;;;2079586;28;20033;-71
2023/08/03 05:16:24;;;;;;;2.90;1.02;;;18.40;99.90;;;;;;2079404;28;20481;-71
2023/08/03 05:17:24;;;;;;;2.97;1.08;;;18.40;99.90;;;;;;2080152;28;20017;-71